MSC Orchestra — 3EJF3 — position and weather

sailwx.info

Track history (hours):
 
Tides and Currents Weather Stations Pressure Air Temp Water Temp Dewpoint Dewpoint Depression Visibility Wind Speed Wind Dir Waves Ship Positions

MSC Orchestra

Last reported at 2016-Jul-02 07:33 UTC. Time now 2016-Jul-02 07:41 UTC.
Position N 42°26' E 018°46'.

Length 292 m; draft 7.8 m.

Type: Ship. MMSI: 372497000.

Date/timePositionNaut miles runAvg speedWind from/ knotsBaromVisibWave heightAir tempDewpointWater temp
2016-Jul-02 07:33N 42°26' E 018°46'0 0.0
2016-Jul-02 06:32N 42°26' E 018°46'0 0.0
2016-Jul-02 04:33N 42°26' E 018°46'4 4.0
2016-Jul-02 03:33N 42°28' E 018°41'7 6.7
2016-Jul-02 02:30N 42°24' E 018°33'1616.8
2016-Jul-02 01:33N 42°09' E 018°38'1817.8
2016-Jul-02 00:33N 41°51' E 018°43'1917.9
2016-Jul-01 23:28N 41°32' E 018°49'5317.3
2016-Jul-01 20:23N 40°40' E 019°05'3216.3
2016-Jul-01 18:27N 40°11' E 019°20'68 6.1
2016-Jul-01 07:19N 39°17' E 020°14'1616.5
2016-Jul-01 06:21N 39°01' E 020°19'17319.5
2016-Jun-30 21:27N 36°31' E 022°06'1820.6
2016-Jun-30 20:33N 36°22' E 022°27'2920.8
2016-Jun-30 19:10N 36°25' E 023°02'3718.9
2016-Jun-30 17:14N 36°54' E 023°30'1421.4
2016-Jun-30 16:33N 37°08' E 023°34'2221.6
2016-Jun-30 15:33N 37°29' E 023°40'2020.2
2016-Jun-30 14:33N 37°49' E 023°37'7 7.0
2016-Jun-30 13:31N 37°56' E 023°38'0 0.0
2016-Jun-30 12:31N 37°56' E 023°38'0 0.0
2016-Jun-30 11:33N 37°56' E 023°38'0 0.0
2016-Jun-30 10:33N 37°56' E 023°38'0 0.0
2016-Jun-30 09:32N 37°56' E 023°38'0 0.0
2016-Jun-30 08:32N 37°56' E 023°38'0 0.1
2016-Jun-30 07:33N 37°56' E 023°38'0 0.1
2016-Jun-30 06:32N 37°56' E 023°38'0 0.0
2016-Jun-30 05:32N 37°56' E 023°38'0 0.0
2016-Jun-30 04:31N 37°56' E 023°38'1 1.2
2016-Jun-30 03:33N 37°56' E 023°37'3 2.6
2016-Jun-30 02:33N 37°54' E 023°38'6 6.4
2016-Jun-30 01:33N 37°48' E 023°41'1010.0
2016-Jun-30 00:33N 37°39' E 023°46'1010.0
2016-Jun-29 23:33N 37°29' E 023°47'1010.3
2016-Jun-29 22:33N 37°19' E 023°51'1010.0
2016-Jun-29 21:33N 37°10' E 023°56'52 2.5
2016-Jun-29 00:33N 36°20' E 024°14'1717.2
2016-Jun-28 23:33N 36°20' E 023°53'65113.0
2016-Jun-26 21:32N 44°08' E 014°00'2121.2
2016-Jun-26 20:33N 44°25' E 013°44'2221.5
2016-Jun-26 19:33N 44°43' E 013°28'2121.1
2016-Jun-26 18:34N 44°60' E 013°09'2121.4
2016-Jun-26 17:33N 45°14' E 012°47'1918.9
2016-Jun-26 16:34N 45°26' E 012°25'5 4.6
2016-Jun-26 15:32N 45°26' E 012°19'0 0.0
2016-Jun-26 14:32N 45°26' E 012°19'0 0.0
2016-Jun-26 13:32N 45°26' E 012°19'0 0.0
2016-Jun-26 12:31N 45°26' E 012°19'0 0.0
2016-Jun-26 11:31N 45°26' E 012°19'0 0.0
2016-Jun-26 10:33N 45°26' E 012°19'0 0.0
2016-Jun-26 09:33N 45°26' E 012°19'0 0.0
2016-Jun-26 08:32N 45°26' E 012°19'0 0.0
2016-Jun-26 07:32N 45°26' E 012°19'0 0.2
2016-Jun-26 06:33N 45°26' E 012°19'7 6.9
2016-Jun-26 05:33N 45°24' E 012°28'1615.7
2016-Jun-26 04:33N 45°16' E 012°47'1918.7
2016-Jun-26 03:33N 45°03' E 013°07'2020.4
2016-Jun-26 02:33N 44°50' E 013°29'2119.8
2016-Jun-26 01:31N 44°33' E 013°45'24319.5
2016-Jun-25 13:04N 42°20' E 018°26'815.7
2016-Jun-25 12:34N 42°26' E 018°33'8 7.9
2016-Jun-25 11:34N 42°29' E 018°43'3 3.4
2016-Jun-25 10:33N 42°26' E 018°46'0 0.0
2016-Jun-25 09:32N 42°26' E 018°46'0 0.0
2016-Jun-25 08:32N 42°26' E 018°46'0 0.0
2016-Jun-25 07:31N 42°26' E 018°46'0 0.0
2016-Jun-25 06:33N 42°26' E 018°46'0 0.0
2016-Jun-25 05:33N 42°26' E 018°46'0 0.0
2016-Jun-25 04:33N 42°26' E 018°46'4 4.1
2016-Jun-25 03:33N 42°27' E 018°40'7 7.0
2016-Jun-25 02:32N 42°22' E 018°34'1414.5
2016-Jun-25 01:33N 42°08' E 018°38'1616.3
2016-Jun-25 00:33N 41°52' E 018°43'23611.7
2016-Jun-24 04:19N 38°08' E 020°18'1519.7
2016-Jun-24 03:33N 37°55' E 020°28'2719.7
2016-Jun-24 02:12N 37°33' E 020°48'13413.6
2016-Jun-23 16:18N 37°11' E 023°35'1720.6
2016-Jun-23 15:29N 37°27' E 023°39'1819.5
2016-Jun-23 14:33N 37°45' E 023°39'1111.1
2016-Jun-23 13:33N 37°56' E 023°37'0 0.0
2016-Jun-23 12:33N 37°56' E 023°37'0 0.0
2016-Jun-23 11:32N 37°56' E 023°37'0 0.0
2016-Jun-23 10:32N 37°56' E 023°37'0 0.0
2016-Jun-23 09:32N 37°56' E 023°37'0 0.0
2016-Jun-23 08:31N 37°56' E 023°37'0 0.0
2016-Jun-23 07:28N 37°56' E 023°37'0 0.0
2016-Jun-23 05:33N 37°56' E 023°37'0 0.0
2016-Jun-23 04:32N 37°56' E 023°37'1 1.2
2016-Jun-23 03:34N 37°55' E 023°37'1 1.4
2016-Jun-23 02:33N 37°54' E 023°38'10 9.7
2016-Jun-23 01:33N 37°45' E 023°43'1010.4
2016-Jun-23 00:33N 37°35' E 023°46'1110.5
2016-Jun-22 23:33N 37°25' E 023°49'1010.2
2016-Jun-22 22:33N 37°15' E 023°53'  
Track history (hours):
 
Tides and Currents Weather Stations Pressure Air Temp Water Temp Dewpoint Dewpoint Depression Visibility Wind Speed Wind Dir Waves Ship Positions

MSC Orchestra

Last reported at 2016-Jul-02 07:33 UTC. Time now 2016-Jul-02 07:41 UTC.
Position N 42°26' E 018°46'.

Length 292 m; draft 7.8 m.

Type: Ship. MMSI: 372497000.

Date/timePositionNaut miles runAvg speedWind from/ knotsBaromVisibWave heightAir tempDewpointWater temp
2016-Jul-02 07:33N 42°26' E 018°46'0 0.0
2016-Jul-02 06:32N 42°26' E 018°46'0 0.0
2016-Jul-02 04:33N 42°26' E 018°46'4 4.0
2016-Jul-02 03:33N 42°28' E 018°41'7 6.7
2016-Jul-02 02:30N 42°24' E 018°33'1616.8
2016-Jul-02 01:33N 42°09' E 018°38'1817.8
2016-Jul-02 00:33N 41°51' E 018°43'1917.9
2016-Jul-01 23:28N 41°32' E 018°49'5317.3
2016-Jul-01 20:23N 40°40' E 019°05'3216.3
2016-Jul-01 18:27N 40°11' E 019°20'68 6.1
2016-Jul-01 07:19N 39°17' E 020°14'1616.5
2016-Jul-01 06:21N 39°01' E 020°19'17319.5
2016-Jun-30 21:27N 36°31' E 022°06'1820.6
2016-Jun-30 20:33N 36°22' E 022°27'2920.8
2016-Jun-30 19:10N 36°25' E 023°02'3718.9
2016-Jun-30 17:14N 36°54' E 023°30'1421.4
2016-Jun-30 16:33N 37°08' E 023°34'2221.6
2016-Jun-30 15:33N 37°29' E 023°40'2020.2
2016-Jun-30 14:33N 37°49' E 023°37'7 7.0
2016-Jun-30 13:31N 37°56' E 023°38'0 0.0
2016-Jun-30 12:31N 37°56' E 023°38'0 0.0
2016-Jun-30 11:33N 37°56' E 023°38'0 0.0
2016-Jun-30 10:33N 37°56' E 023°38'0 0.0
2016-Jun-30 09:32N 37°56' E 023°38'0 0.0
2016-Jun-30 08:32N 37°56' E 023°38'0 0.1
2016-Jun-30 07:33N 37°56' E 023°38'0 0.1
2016-Jun-30 06:32N 37°56' E 023°38'0 0.0
2016-Jun-30 05:32N 37°56' E 023°38'0 0.0
2016-Jun-30 04:31N 37°56' E 023°38'1 1.2
2016-Jun-30 03:33N 37°56' E 023°37'3 2.6
2016-Jun-30 02:33N 37°54' E 023°38'6 6.4
2016-Jun-30 01:33N 37°48' E 023°41'1010.0
2016-Jun-30 00:33N 37°39' E 023°46'1010.0
2016-Jun-29 23:33N 37°29' E 023°47'1010.3
2016-Jun-29 22:33N 37°19' E 023°51'1010.0
2016-Jun-29 21:33N 37°10' E 023°56'52 2.5
2016-Jun-29 00:33N 36°20' E 024°14'1717.2
2016-Jun-28 23:33N 36°20' E 023°53'65113.0
2016-Jun-26 21:32N 44°08' E 014°00'2121.2
2016-Jun-26 20:33N 44°25' E 013°44'2221.5
2016-Jun-26 19:33N 44°43' E 013°28'2121.1
2016-Jun-26 18:34N 44°60' E 013°09'2121.4
2016-Jun-26 17:33N 45°14' E 012°47'1918.9
2016-Jun-26 16:34N 45°26' E 012°25'5 4.6
2016-Jun-26 15:32N 45°26' E 012°19'0 0.0
2016-Jun-26 14:32N 45°26' E 012°19'0 0.0
2016-Jun-26 13:32N 45°26' E 012°19'0 0.0
2016-Jun-26 12:31N 45°26' E 012°19'0 0.0
2016-Jun-26 11:31N 45°26' E 012°19'0 0.0
2016-Jun-26 10:33N 45°26' E 012°19'0 0.0
2016-Jun-26 09:33N 45°26' E 012°19'0 0.0
2016-Jun-26 08:32N 45°26' E 012°19'0 0.0
2016-Jun-26 07:32N 45°26' E 012°19'0 0.2
2016-Jun-26 06:33N 45°26' E 012°19'7 6.9
2016-Jun-26 05:33N 45°24' E 012°28'1615.7
2016-Jun-26 04:33N 45°16' E 012°47'1918.7
2016-Jun-26 03:33N 45°03' E 013°07'2020.4
2016-Jun-26 02:33N 44°50' E 013°29'2119.8
2016-Jun-26 01:31N 44°33' E 013°45'24319.5
2016-Jun-25 13:04N 42°20' E 018°26'815.7
2016-Jun-25 12:34N 42°26' E 018°33'8 7.9
2016-Jun-25 11:34N 42°29' E 018°43'3 3.4
2016-Jun-25 10:33N 42°26' E 018°46'0 0.0
2016-Jun-25 09:32N 42°26' E 018°46'0 0.0
2016-Jun-25 08:32N 42°26' E 018°46'0 0.0
2016-Jun-25 07:31N 42°26' E 018°46'0 0.0
2016-Jun-25 06:33N 42°26' E 018°46'0 0.0
2016-Jun-25 05:33N 42°26' E 018°46'0 0.0
2016-Jun-25 04:33N 42°26' E 018°46'4 4.1
2016-Jun-25 03:33N 42°27' E 018°40'7 7.0
2016-Jun-25 02:32N 42°22' E 018°34'1414.5
2016-Jun-25 01:33N 42°08' E 018°38'1616.3
2016-Jun-25 00:33N 41°52' E 018°43'23611.7
2016-Jun-24 04:19N 38°08' E 020°18'1519.7
2016-Jun-24 03:33N 37°55' E 020°28'2719.7
2016-Jun-24 02:12N 37°33' E 020°48'13413.6
2016-Jun-23 16:18N 37°11' E 023°35'1720.6
2016-Jun-23 15:29N 37°27' E 023°39'1819.5
2016-Jun-23 14:33N 37°45' E 023°39'1111.1
2016-Jun-23 13:33N 37°56' E 023°37'0 0.0
2016-Jun-23 12:33N 37°56' E 023°37'0 0.0
2016-Jun-23 11:32N 37°56' E 023°37'0 0.0
2016-Jun-23 10:32N 37°56' E 023°37'0 0.0
2016-Jun-23 09:32N 37°56' E 023°37'0 0.0
2016-Jun-23 08:31N 37°56' E 023°37'0 0.0
2016-Jun-23 07:28N 37°56' E 023°37'0 0.0
2016-Jun-23 05:33N 37°56' E 023°37'0 0.0
2016-Jun-23 04:32N 37°56' E 023°37'1 1.2
2016-Jun-23 03:34N 37°55' E 023°37'1 1.4
2016-Jun-23 02:33N 37°54' E 023°38'10 9.7
2016-Jun-23 01:33N 37°45' E 023°43'1010.4
2016-Jun-23 00:33N 37°35' E 023°46'1110.5
2016-Jun-22 23:33N 37°25' E 023°49'1010.2
2016-Jun-22 22:33N 37°15' E 023°53'  

Dump ship's entire track history